High Etherley, United Kingdom
Current Conditions -  °F | °C
As of 3:50 PM on Friday 31 Oct 2014 (Local Time) from EGNV Reporting Station
Few Clouds Few Clouds  
Wind Chill: 63°   Ceiling: Unl
Heat Index: 63°   Visibility: 6mi
Dew Point: 57°   Wind: 20mph
Humidity: 82%   Direction: 180°S
Pressure: 29.8"   Gusts: NA
Location:  54.65°N, 1.74°W
Report Text: EGNV 311550Z 18017KT 9999 FEW035 17/14 Q1009
Loading
Personal Weather Stations






























Interactive Weather Map
Tropical Storm Tracking
New forecast layout! Learn more

10-Day Weather Forecast

Advertisements
Track Severe Weather on mobile